Evergreen, North Carolina
Current Conditions -  °F | °C
As of 10:35 PM on Sunday 21 Dec 2014 (Local Time) from KCPC Reporting Station
Moderate Rain Moderate Rain  
Wind Chill: 38°   Ceiling: 4100
Heat Index: 43°   Visibility: 7mi
Dew Point: 40°   Wind: 8mph
Humidity: 88%   Direction: 30°NNE
Pressure: 30.16"   Gusts: NA
Location:  34.41°N, 78.9°W
Report Text: KCPC 220335Z AUTO 03007KT 7SM RA SCT017 SCT031 OVC041 06/04 A3016 RMK AO2 T00610043
Loading
Personal Weather Stations






























Interactive Weather Map New forecast layout! Learn more

10-Day Weather Forecast

Advertisements
Track Severe Weather on mobile